Disclaimer

Please do not use the information listed here in-flight or in-navigation, as they are not provided to us by the airports but are provided by volunteers, so they might be outdated.

Search


Regions


Airport information page

Radio informations:
Tower (TWR) - 120.875 MHz
PRECISION - 123.3 MHz
Approach (APP) - 124.675 MHz

Airport informations:
Latitude: 50° 07' 16.92" N
Longitude: 014° 32' 37.11" E
Elevation: 939 feet - 286 meters
Operating hours: 24 hour operations
Operating agency: Military
Timezone: UTC+1(+2DT)
Fuel: N/A

Runway information:
06/24 - 6562 x 148 feet< - >2000 x 45 meters

Recent METARs:
LKKB 210200Z 06006KT 2000 BR SCT002 OVC005 00/M01 Q1014
LKKB 210200Z 06006KT 2000 BR SCT002 OVC005 00/M01 Q1014
LKKB 210200Z 06006KT 2000 BR SCT002 OVC005 00/M01 Q1014

Airport on the map: